createdAt,value
2018-12-18T11:45:41.833Z,52.60
2018-12-18T11:46:42.106Z,54.00
2018-12-18T11:48:34.128Z,61.20
2018-12-18T11:49:34.460Z,58.60
2018-12-18T11:51:28.226Z,62.30
2018-12-18T11:52:27.432Z,55.30
2018-12-18T11:54:19.815Z,64.90
2018-12-18T11:55:20.170Z,73.60
2018-12-18T11:57:13.735Z,72.50
2018-12-18T11:58:13.515Z,76.10
2018-12-18T12:00:06.601Z,83.40
2018-12-18T12:01:06.889Z,85.30
2018-12-18T12:03:00.095Z,78.40
2018-12-18T12:03:59.442Z,75.70
2018-12-18T12:06:52.110Z,89.70
2018-12-18T12:08:44.447Z,75.50
2018-12-18T12:09:44.194Z,73.70
2018-12-18T12:11:37.488Z,80.60
2018-12-18T12:12:36.977Z,80.90
2018-12-18T12:14:30.571Z,75.40
2018-12-18T12:15:29.967Z,77.00
2018-12-18T12:17:22.203Z,80.70
2018-12-18T12:18:21.832Z,79.10
2018-12-18T12:20:15.649Z,83.90
2018-12-18T12:21:15.727Z,84.50
2018-12-18T12:23:07.666Z,81.40
2018-12-18T12:24:08.623Z,79.40
2018-12-18T12:26:01.296Z,74.20
2018-12-18T12:27:01.336Z,66.60
2018-12-18T12:28:53.801Z,70.90
2018-12-18T12:29:53.358Z,75.30
2018-12-18T12:31:46.043Z,83.90
2018-12-18T12:32:46.020Z,81.00
2018-12-18T12:34:38.399Z,84.90
2018-12-18T12:35:38.388Z,85.60
2018-12-18T12:37:30.617Z,89.50
2018-12-18T12:38:30.700Z,88.70
2018-12-18T12:40:23.062Z,97.40
2018-12-18T12:41:22.716Z,100.80
2018-12-18T12:43:15.280Z,99.00
2018-12-18T12:44:15.418Z,104.70
2018-12-18T12:46:07.393Z,100.20
2018-12-18T12:47:07.401Z,103.30
2018-12-18T12:49:00.039Z,102.10
2018-12-18T12:49:59.719Z,106.50
2018-12-18T12:51:52.074Z,106.10
2018-12-18T12:52:52.418Z,111.40
2018-12-18T12:54:45.009Z,109.40
2018-12-18T12:55:44.824Z,107.80
2018-12-18T12:57:37.168Z,101.40
2018-12-18T12:58:37.139Z,104.00
2018-12-18T13:00:33.442Z,112.70
2018-12-18T13:01:29.146Z,109.00
2018-12-18T13:03:22.471Z,110.30
2018-12-18T13:04:21.800Z,107.70
2018-12-18T13:06:14.762Z,108.20
2018-12-18T13:07:14.159Z,107.40
2018-12-18T13:09:06.472Z,108.20
2018-12-18T13:10:06.497Z,113.10
2018-12-18T13:11:59.026Z,114.10
2018-12-18T13:12:58.457Z,113.70
2018-12-18T13:14:50.812Z,108.70
2018-12-18T13:15:51.182Z,112.10
2018-12-18T13:17:43.372Z,115.20
2018-12-18T13:18:43.495Z,119.00
2018-12-18T13:20:35.835Z,115.90
2018-12-18T13:21:35.458Z,114.90
2018-12-18T13:23:28.068Z,120.70
2018-12-18T13:24:28.187Z,121.20
2018-12-18T13:26:19.671Z,117.00
2018-12-18T13:27:19.689Z,118.20
2018-12-18T13:29:12.566Z,118.90
2018-12-18T13:30:12.941Z,120.70
2018-12-18T13:32:04.697Z,117.80
2018-12-18T13:33:04.337Z,117.10
2018-12-18T13:35:00.320Z,119.30
2018-12-18T13:35:57.008Z,120.00
2018-12-18T13:37:49.408Z,124.70
2018-12-18T13:38:49.020Z,127.30
2018-12-18T13:40:41.572Z,119.10
2018-12-18T13:41:41.702Z,122.30
2018-12-18T13:43:34.690Z,119.70
2018-12-18T13:44:35.021Z,118.60
2018-12-18T13:46:28.365Z,126.20
2018-12-18T13:47:27.725Z,125.70
2018-12-18T13:49:20.653Z,120.60
2018-12-18T13:50:20.390Z,119.40
2018-12-18T13:52:12.595Z,122.50
2018-12-18T13:53:12.381Z,122.50
2018-12-18T13:55:04.724Z,121.70
2018-12-18T13:56:04.734Z,120.90
2018-12-18T13:58:01.319Z,121.90
2018-12-18T13:58:57.394Z,122.50
2018-12-18T14:00:50.309Z,124.70
2018-12-18T14:01:49.408Z,127.80
2018-12-18T14:03:41.966Z,126.80
2018-12-18T14:04:41.758Z,128.50
2018-12-18T14:06:34.545Z,131.40
2018-12-18T14:07:33.905Z,135.00
2018-12-18T14:09:26.157Z,134.00
2018-12-18T14:10:26.259Z,133.10
2018-12-18T14:12:19.181Z,134.90
2018-12-18T14:13:18.574Z,142.00
2018-12-18T14:15:10.827Z,134.00
2018-12-18T14:16:10.574Z,137.60
2018-12-18T14:18:03.533Z,141.50
2018-12-18T14:19:02.925Z,147.70
2018-12-18T14:20:55.901Z,135.10
2018-12-18T14:21:54.747Z,137.80
2018-12-18T14:23:48.058Z,139.50
2018-12-18T14:24:47.074Z,136.30
2018-12-18T14:26:39.980Z,139.50
2018-12-18T14:27:39.799Z,136.60
2018-12-18T14:29:32.121Z,142.00
2018-12-18T14:30:31.740Z,145.20
2018-12-18T14:32:24.916Z,140.30
2018-12-18T14:33:24.470Z,142.90
2018-12-18T14:35:16.481Z,141.00
2018-12-18T14:36:16.476Z,142.10
2018-12-18T14:38:10.374Z,142.70
2018-12-18T14:39:09.805Z,146.90
2018-12-18T14:41:02.591Z,142.10
2018-12-18T14:42:02.159Z,143.70
2018-12-18T14:43:54.670Z,147.50
2018-12-18T14:44:54.473Z,149.90
2018-12-18T14:46:46.778Z,141.70
2018-12-18T14:47:47.173Z,149.60
2018-12-18T14:49:40.384Z,147.90
2018-12-18T14:50:40.536Z,147.30
2018-12-18T14:52:32.892Z,149.70
2018-12-18T14:53:32.825Z,146.20
2018-12-18T14:55:25.559Z,150.20
2018-12-18T14:56:25.131Z,155.00
2018-12-18T14:58:17.114Z,147.40
2018-12-18T14:59:17.108Z,146.40
2018-12-18T15:01:09.649Z,146.80
2018-12-18T15:02:09.776Z,151.40
2018-12-18T15:04:02.143Z,147.80
2018-12-18T15:05:02.122Z,147.70
2018-12-18T15:07:02.789Z,145.60
2018-12-18T15:07:54.092Z,144.60
2018-12-18T15:09:46.802Z,149.80
2018-12-18T15:10:46.446Z,151.80
2018-12-18T15:12:43.173Z,147.70
2018-12-18T15:13:39.149Z,148.00
2018-12-18T15:15:32.161Z,147.60
2018-12-18T15:16:32.488Z,147.70
2018-12-18T15:18:25.255Z,149.00
2018-12-18T15:19:24.792Z,146.40
2018-12-18T15:21:16.831Z,148.10
2018-12-18T15:22:16.776Z,149.70
2018-12-18T15:24:09.349Z,145.50
2018-12-18T15:25:09.158Z,148.90
2018-12-18T15:27:01.461Z,145.20
2018-12-18T15:28:01.445Z,147.90
2018-12-18T15:29:54.942Z,150.30
2018-12-18T15:30:54.124Z,153.20
2018-12-18T15:32:46.469Z,148.60
2018-12-18T15:33:46.138Z,149.40
2018-12-18T15:35:38.637Z,148.30
2018-12-18T15:36:38.771Z,147.40
2018-12-18T15:38:32.165Z,145.80
2018-12-18T15:39:32.164Z,145.40
2018-12-18T15:41:24.397Z,145.10
2018-12-18T15:42:24.119Z,143.20
2018-12-18T15:44:17.505Z,143.30
2018-12-18T15:45:17.812Z,142.00
2018-12-18T15:47:11.471Z,142.30
2018-12-18T15:48:10.727Z,138.10
2018-12-18T15:50:02.709Z,140.20
2018-12-18T15:51:03.054Z,138.30
2018-12-18T15:52:55.682Z,139.60
2018-12-18T15:53:55.030Z,138.10
2018-12-18T15:55:47.413Z,135.70
2018-12-18T15:56:47.755Z,134.10
2018-12-18T15:58:39.937Z,132.90
2018-12-18T15:59:39.731Z,132.80
2018-12-18T16:01:32.096Z,131.70
2018-12-18T16:02:32.051Z,130.60
2018-12-18T16:04:24.527Z,133.60
2018-12-18T16:05:24.398Z,129.10
2018-12-18T16:07:16.729Z,133.60
2018-12-18T16:08:17.055Z,132.50
2018-12-18T16:10:09.213Z,128.00
2018-12-18T16:11:09.405Z,127.70
2018-12-18T16:13:02.363Z,128.10
2018-12-18T16:14:01.386Z,127.00
2018-12-18T16:15:53.983Z,126.70
2018-12-18T16:16:53.706Z,126.10
2018-12-18T16:18:46.434Z,129.50
2018-12-18T16:19:46.053Z,127.00
2018-12-18T16:21:38.963Z,125.10
2018-12-18T16:22:38.758Z,128.10
2018-12-18T16:24:30.733Z,129.80
2018-12-18T16:25:30.720Z,129.10
2018-12-18T16:27:23.621Z,133.10
2018-12-18T16:28:23.389Z,130.50
2018-12-18T16:30:15.396Z,134.60
2018-12-18T16:31:15.741Z,134.40
2018-12-18T16:33:08.329Z,132.40
2018-12-18T16:34:07.706Z,132.50
2018-12-18T16:36:00.076Z,134.60
2018-12-18T16:37:00.426Z,135.40
2018-12-18T16:38:52.931Z,137.50
2018-12-18T16:39:52.408Z,138.40
2018-12-18T16:41:44.228Z,137.60
2018-12-18T16:42:44.252Z,136.40
2018-12-18T16:44:37.146Z,136.80
2018-12-18T16:45:36.884Z,136.70
2018-12-18T16:47:28.881Z,136.90
2018-12-18T16:48:28.875Z,141.20
2018-12-18T16:50:21.781Z,139.10
2018-12-18T16:51:21.247Z,143.20
2018-12-18T16:53:13.901Z,140.80
2018-12-18T16:54:13.913Z,145.50
2018-12-18T16:56:06.429Z,142.80
2018-12-18T16:57:05.910Z,145.10
2018-12-18T16:58:58.221Z,144.70
2018-12-18T16:59:58.573Z,140.10
2018-12-18T17:01:52.158Z,145.50
2018-12-18T17:02:51.585Z,145.10
2018-12-18T17:04:44.496Z,136.00
2018-12-18T17:05:44.226Z,139.20
2018-12-18T17:07:37.011Z,137.50
2018-12-18T17:08:36.574Z,143.40
2018-12-18T17:10:28.998Z,141.00
2018-12-18T17:11:28.533Z,142.80
2018-12-18T17:13:21.469Z,144.70
2018-12-18T17:14:21.219Z,143.20
2018-12-18T17:16:13.240Z,143.90
2018-12-18T17:17:13.563Z,143.70
2018-12-18T17:19:05.681Z,140.70
2018-12-18T17:20:05.089Z,139.30
2018-12-18T17:21:57.873Z,137.60
2018-12-18T17:22:57.410Z,139.40
2018-12-18T17:24:50.258Z,142.30
2018-12-18T17:25:49.776Z,141.90
2018-12-18T17:27:42.665Z,147.90
2018-12-18T17:28:42.039Z,142.70
2018-12-18T17:30:34.945Z,144.50
2018-12-18T17:31:34.396Z,148.50
2018-12-18T17:33:28.105Z,148.10
2018-12-18T17:34:27.724Z,146.90
2018-12-18T17:36:21.230Z,150.20
2018-12-18T17:37:20.450Z,146.80
2018-12-18T17:39:12.748Z,143.10
2018-12-18T17:40:12.384Z,143.50
2018-12-18T17:42:04.981Z,143.70
2018-12-18T17:43:04.753Z,148.30
2018-12-18T17:44:57.444Z,144.70
2018-12-18T17:45:57.403Z,143.00
2018-12-18T17:47:50.697Z,139.80
2018-12-18T17:48:50.349Z,142.60
2018-12-18T17:50:42.176Z,149.60
2018-12-18T17:51:42.161Z,146.90
2018-12-18T17:53:34.816Z,142.50
2018-12-18T17:54:34.543Z,141.20
2018-12-18T17:56:26.529Z,145.70
2018-12-18T17:57:26.510Z,142.80
2018-12-18T17:59:19.609Z,141.00
2018-12-18T18:00:19.376Z,140.20
2018-12-18T18:02:13.318Z,141.60
2018-12-18T18:03:12.730Z,142.40
2018-12-18T18:05:04.892Z,137.90
2018-12-18T18:06:05.028Z,138.70
2018-12-18T18:07:57.996Z,138.00
2018-12-18T18:08:57.346Z,139.10
2018-12-18T18:10:49.881Z,139.70
2018-12-18T18:11:49.319Z,140.10
2018-12-18T18:13:42.062Z,134.40
2018-12-18T18:14:42.045Z,135.30
2018-12-18T18:16:34.245Z,132.60
2018-12-18T18:17:34.019Z,131.30
2018-12-18T18:19:27.721Z,134.00
2018-12-18T18:20:27.400Z,130.90
2018-12-18T18:22:20.526Z,133.20
2018-12-18T18:23:19.727Z,131.60
2018-12-18T18:25:12.078Z,130.80
2018-12-18T18:26:12.427Z,132.20
2018-12-18T18:28:06.000Z,130.00
2018-12-18T18:29:05.436Z,130.00
2018-12-18T18:30:58.147Z,128.40
2018-12-18T18:31:58.115Z,129.20
2018-12-18T18:33:50.707Z,126.30
2018-12-18T18:34:50.483Z,128.70
2018-12-18T18:36:42.822Z,127.10
2018-12-18T18:37:49.444Z,126.60
2018-12-18T18:39:35.013Z,126.40
2018-12-18T18:40:34.814Z,124.10
2018-12-18T18:42:27.128Z,125.20
2018-12-18T18:43:27.152Z,124.90
2018-12-18T18:45:19.681Z,126.00
2018-12-18T18:46:19.448Z,124.10
2018-12-18T18:48:12.413Z,123.80
2018-12-18T18:49:12.143Z,123.80
2018-12-18T18:51:05.384Z,124.40
2018-12-18T18:52:05.115Z,126.20
2018-12-18T18:53:57.499Z,124.80
2018-12-18T18:54:57.779Z,124.90
2018-12-18T18:56:50.544Z,122.60
2018-12-18T18:57:49.925Z,125.70
2018-12-18T18:59:42.650Z,121.70
2018-12-18T19:00:42.643Z,120.60
2018-12-18T19:02:35.205Z,124.30
2018-12-18T19:03:34.596Z,123.50
2018-12-18T19:05:27.520Z,122.30
2018-12-18T19:06:27.304Z,121.10
2018-12-18T19:08:20.416Z,123.80
2018-12-18T19:09:19.825Z,120.50
2018-12-18T19:11:13.107Z,122.10
2018-12-18T19:12:12.111Z,121.30
2018-12-18T19:14:04.674Z,123.20
2018-12-18T19:15:04.482Z,123.70
2018-12-18T19:16:57.377Z,118.90
2018-12-18T19:17:57.122Z,120.60
2018-12-18T19:19:50.447Z,119.30
2018-12-18T19:20:49.995Z,115.40
2018-12-18T19:22:41.983Z,120.10
2018-12-18T19:23:42.353Z,121.70
2018-12-18T19:25:34.564Z,120.00
2018-12-18T19:26:34.654Z,123.20
2018-12-18T19:28:28.036Z,122.00
2018-12-18T19:29:28.023Z,116.80
2018-12-18T19:31:20.234Z,120.50
2018-12-18T19:32:20.324Z,117.80
2018-12-18T19:34:13.357Z,126.00
2018-12-18T19:35:13.327Z,122.90
2018-12-18T19:37:06.247Z,122.70
2018-12-18T19:38:05.685Z,122.20
2018-12-18T19:39:59.385Z,124.70
2018-12-18T19:40:59.396Z,128.70
2018-12-18T19:42:51.598Z,120.00
2018-12-18T19:43:51.716Z,121.90
2018-12-18T19:45:43.703Z,119.70
2018-12-18T19:46:43.697Z,117.70
2018-12-18T19:48:38.444Z,121.00
2018-12-18T19:49:38.234Z,122.70
2018-12-18T19:51:30.576Z,120.80
2018-12-18T19:52:30.625Z,122.10
2018-12-18T19:54:23.224Z,121.30
2018-12-18T19:55:22.602Z,122.20
2018-12-18T19:57:15.487Z,121.60
2018-12-18T19:58:14.951Z,128.60
2018-12-18T20:00:07.468Z,120.00
2018-12-18T20:01:07.254Z,120.00
2018-12-18T20:03:01.590Z,122.90
2018-12-18T20:04:00.964Z,120.60
2018-12-18T20:05:53.507Z,126.60
2018-12-18T20:06:53.334Z,126.60
2018-12-18T20:08:45.274Z,124.10
2018-12-18T20:09:45.286Z,125.10
2018-12-18T20:11:39.226Z,123.20
2018-12-18T20:12:38.629Z,122.40
2018-12-18T20:14:31.320Z,124.20
2018-12-18T20:15:31.299Z,121.80
2018-12-18T20:17:23.527Z,123.40
2018-12-18T20:18:23.599Z,124.70
2018-12-18T20:20:16.022Z,120.10
2018-12-18T20:21:15.999Z,120.50
2018-12-18T20:23:08.530Z,116.30
2018-12-18T20:24:07.950Z,117.70
2018-12-18T20:26:00.689Z,116.80
2018-12-18T20:27:00.694Z,116.10
2018-12-18T20:28:52.918Z,117.70
2018-12-18T20:29:52.648Z,115.90
2018-12-18T20:31:44.987Z,116.80
2018-12-18T20:32:44.981Z,119.90
2018-12-18T20:34:37.853Z,115.10
2018-12-18T20:35:37.671Z,119.10
2018-12-18T20:37:30.629Z,114.70
2018-12-18T20:38:29.676Z,113.30
2018-12-18T20:40:22.278Z,120.60
2018-12-18T20:41:21.964Z,117.90
2018-12-18T20:43:14.333Z,118.30
2018-12-18T20:44:14.305Z,118.80
2018-12-18T20:46:07.483Z,115.70
2018-12-18T20:47:07.235Z,113.50
2018-12-18T20:48:59.450Z,117.40
2018-12-18T20:49:59.345Z,114.40
2018-12-18T20:51:52.576Z,116.80
2018-12-18T20:52:52.683Z,117.50
2018-12-18T20:54:44.662Z,114.60
2018-12-18T20:55:44.653Z,114.30
2018-12-18T20:57:37.228Z,116.30
2018-12-18T20:58:37.356Z,116.20
2018-12-18T21:00:29.319Z,112.60
2018-12-18T21:01:29.301Z,115.20
2018-12-18T21:03:21.869Z,116.80
2018-12-18T21:04:21.645Z,115.50
2018-12-18T21:06:14.418Z,113.80
2018-12-18T21:07:14.085Z,112.50
2018-12-18T21:09:06.984Z,113.30
2018-12-18T21:10:06.717Z,111.10
2018-12-18T21:11:58.709Z,106.60
2018-12-18T21:12:59.056Z,105.60
2018-12-18T21:14:51.294Z,106.90
2018-12-18T21:15:51.050Z,108.50
2018-12-18T21:17:44.754Z,105.10
2018-12-18T21:18:44.720Z,101.70
2018-12-18T21:20:38.936Z,102.90
2018-12-18T21:21:38.101Z,104.50
2018-12-18T21:23:30.074Z,101.20
2018-12-18T21:24:30.453Z,103.90
2018-12-18T21:26:22.684Z,97.50
2018-12-18T21:27:22.411Z,101.90
2018-12-18T21:29:14.807Z,101.10
2018-12-18T21:30:14.778Z,101.00
2018-12-18T21:32:07.329Z,103.20
2018-12-18T21:33:07.094Z,98.10
2018-12-18T21:34:59.446Z,97.70
2018-12-18T21:35:59.415Z,101.50
2018-12-18T21:37:52.008Z,98.50
2018-12-18T21:38:51.795Z,98.90
2018-12-18T21:40:44.154Z,101.00
2018-12-18T21:41:44.494Z,100.20
2018-12-18T21:43:37.219Z,97.50
2018-12-18T21:44:36.698Z,96.60
2018-12-18T21:46:29.003Z,95.10
2018-12-18T21:47:29.015Z,95.40
2018-12-18T21:49:23.999Z,90.40
2018-12-18T21:50:23.020Z,90.40
2018-12-18T21:52:15.723Z,92.50
2018-12-18T21:53:15.718Z,89.50
2018-12-18T21:55:08.838Z,90.20
2018-12-18T21:56:08.585Z,89.40
2018-12-18T21:58:00.593Z,90.20
2018-12-18T21:59:00.931Z,91.50
2018-12-18T22:00:53.506Z,95.50
2018-12-18T22:01:52.902Z,91.10
2018-12-18T22:03:46.277Z,92.60
2018-12-18T22:04:46.234Z,94.50
2018-12-18T22:06:39.206Z,88.40
2018-12-18T22:07:38.938Z,93.00
2018-12-18T22:09:31.892Z,94.10
2018-12-18T22:10:31.258Z,87.80
2018-12-18T22:12:23.506Z,93.80
2018-12-18T22:13:23.251Z,92.20
2018-12-18T22:15:15.615Z,97.00
2018-12-18T22:16:15.591Z,93.50
2018-12-18T22:18:09.324Z,93.00
2018-12-18T22:19:08.920Z,92.00
2018-12-18T22:21:01.290Z,93.20
2018-12-18T22:22:01.671Z,95.70
2018-12-18T22:23:53.871Z,91.40
2018-12-18T22:24:53.639Z,90.60
2018-12-18T22:26:46.312Z,91.50
2018-12-18T22:27:46.321Z,90.20
2018-12-18T22:29:38.907Z,92.00
2018-12-18T22:30:38.651Z,89.20
2018-12-18T22:32:31.251Z,88.50
2018-12-18T22:33:30.639Z,88.60
2018-12-18T22:35:23.230Z,86.50
2018-12-18T22:36:22.983Z,89.80
2018-12-18T22:38:15.663Z,85.20
2018-12-18T22:39:15.651Z,84.10
2018-12-18T22:41:07.906Z,88.00
2018-12-18T22:42:08.017Z,88.10
2018-12-18T22:44:00.327Z,87.90
2018-12-18T22:45:00.311Z,83.50
2018-12-18T22:46:53.898Z,80.50
2018-12-18T22:47:53.662Z,83.10
2018-12-18T22:49:46.646Z,85.90
2018-12-18T22:50:45.665Z,82.60
2018-12-18T22:52:38.644Z,83.50
2018-12-18T22:53:38.379Z,84.50
2018-12-18T22:55:30.723Z,81.40
2018-12-18T22:56:30.358Z,81.50
2018-12-18T22:58:23.248Z,81.50
2018-12-18T22:59:22.707Z,76.10
2018-12-18T23:01:15.997Z,82.40
2018-12-18T23:02:15.399Z,84.40
2018-12-18T23:04:08.921Z,78.70
2018-12-18T23:05:08.757Z,77.60
2018-12-18T23:07:01.681Z,76.20
2018-12-18T23:08:00.680Z,74.40
2018-12-18T23:09:54.203Z,77.90
2018-12-18T23:10:53.376Z,74.00
2018-12-18T23:12:46.466Z,76.90
2018-12-18T23:13:46.702Z,77.00
2018-12-18T23:15:39.026Z,75.90
2018-12-18T23:16:38.749Z,76.80
2018-12-18T23:18:31.540Z,72.30
2018-12-18T23:19:31.046Z,72.70
2018-12-18T23:21:23.972Z,72.60
2018-12-18T23:22:23.753Z,72.30
2018-12-18T23:24:15.712Z,74.30
2018-12-18T23:25:16.065Z,73.90
2018-12-18T23:27:08.642Z,72.20
2018-12-18T23:28:08.072Z,71.80
2018-12-18T23:30:00.775Z,73.50
2018-12-18T23:31:00.711Z,73.20
2018-12-18T23:32:54.309Z,77.40
2018-12-18T23:33:53.721Z,75.30
2018-12-18T23:35:46.089Z,73.70
2018-12-18T23:36:46.058Z,73.10
2018-12-18T23:38:38.595Z,73.00
2018-12-18T23:39:38.748Z,75.80
2018-12-18T23:41:30.846Z,73.10
2018-12-18T23:42:31.115Z,74.40
2018-12-18T23:44:23.274Z,77.80
2018-12-18T23:45:23.077Z,76.90
2018-12-18T23:47:15.439Z,77.70
2018-12-18T23:48:15.382Z,80.40
2018-12-18T23:50:08.663Z,75.10
2018-12-18T23:51:08.808Z,74.20
2018-12-18T23:53:00.776Z,73.40
2018-12-18T23:54:00.778Z,76.40
2018-12-18T23:55:53.690Z,75.80
2018-12-18T23:56:53.135Z,77.50
2018-12-18T23:58:46.844Z,79.10
2018-12-18T23:59:46.845Z,79.40
